Time;durP1;ratioP1;P1;durP2;ratioP2;P2;SDS_P1;SDS_P2;PMS_P1;PMS_P2;Temp;Humidity;BMP_temperature;BMP_pressure;BME280_temperature;BME280_humidity;BME280_pressure;Samples;Min_cycle;Max_cycle;Signal;HPM_P1;HPM_P2
2023/08/17 00:00:26;;;;;;;;;;;;;;;22.47;57.33;101400.03;4150461;28;19972;-62
2023/08/17 00:02:28;;;;;;;;;;;;;;;22.45;57.21;101400.13;4150823;28;19953;-61
2023/08/17 00:04:29;;;;;;;;;;;;;;;22.44;57.50;101397.56;4150005;28;19949;-63
2023/08/17 00:06:31;;;;;;;;;;;;;;;22.44;57.24;101395.75;4150190;28;19925;-62
2023/08/17 00:08:32;;;;;;;;;;;;;;;22.44;57.18;101401.13;4150645;28;20446;-63
2023/08/17 00:10:34;;;;;;;;;;;;;;;22.45;57.60;101396.59;4150702;28;19925;-63
2023/08/17 00:12:35;;;;;;;;;;;;;;;22.43;57.43;101398.53;4150277;28;19925;-63
2023/08/17 00:14:37;;;;;;;;;;;;;;;22.42;57.35;101397.69;4149701;28;19925;-63
2023/08/17 00:16:38;;;;;;;;;;;;;;;22.42;57.42;101397.69;4150445;28;19963;-63
2023/08/17 00:18:40;;;;;;;;;;;;;;;22.42;57.61;101396.81;4150293;28;19929;-63
2023/08/17 00:20:41;;;;;;;;;;;;;;;22.41;57.64;101393.31;4150035;28;20036;-63
2023/08/17 00:22:43;;;;;;;;;;;;;;;22.42;57.89;101408.41;4149265;28;20014;-63
2023/08/17 00:24:45;;;;;;;;;;;;;;;22.41;57.71;101390.63;4149632;28;19925;-63
2023/08/17 00:26:46;;;;;;;;;;;;;;;22.40;57.65;101396.94;4150393;28;19972;-63
2023/08/17 00:28:48;;;;;;;;;;;;;;;22.41;57.88;101397.81;4150060;28;19953;-63
2023/08/17 00:30:50;;;;;;;;;;;;;;;22.40;57.95;101393.44;4150150;28;19939;-62
2023/08/17 00:32:51;;;;;;;;;;;;;;;22.40;57.78;101396.94;4150051;28;20024;-63
2023/08/17 00:34:53;;;;;;;;;;;;;;;22.39;57.52;101391.72;4149581;28;20327;-62
2023/08/17 00:36:55;;;;;;;;;;;;;;;22.37;57.59;101391.81;4149706;28;20482;-63
2023/08/17 00:38:56;;;;;;;;;;;;;;;22.39;57.91;101397.06;4149021;28;20024;-63
2023/08/17 00:40:58;;;;;;;;;;;;;;;22.37;57.45;101393.59;4149922;28;19968;-63
2023/08/17 00:42:59;;;;;;;;;;;;;;;22.37;57.94;101398.97;4148892;28;20012;-63
2023/08/17 00:45:02;;;;;;;;;;;;;;;22.37;57.55;101401.66;4149483;28;20417;-63
2023/08/17 00:47:04;;;;;;;;;;;;;;;22.27;57.46;101382.72;4150049;28;20036;-62
2023/08/17 00:49:06;;;;;;;;;;;;;;;22.34;57.32;101395.53;4149979;28;20354;-63
2023/08/17 00:51:08;;;;;;;;;;;;;;;22.35;57.62;101399.09;4148562;28;19929;-63
2023/08/17 00:53:13;;;;;;;;;;;;;;;22.36;58.02;101397.25;4149587;28;20306;-63
2023/08/17 00:55:15;;;;;;;;;;;;;;;22.36;58.18;101398.13;4149358;28;19948;-63
2023/08/17 00:57:16;;;;;;;;;;;;;;;22.36;58.33;101394.56;4149714;28;19929;-63
2023/08/17 00:59:18;;;;;;;;;;;;;;;22.34;58.26;101392.03;4149912;28;19929;-63
2023/08/17 01:01:20;;;;;;;;;;;;;;;22.34;58.19;101392.03;4149796;28;20019;-63
2023/08/17 01:03:22;;;;;;;;;;;;;;;22.34;58.27;101392.84;4149185;28;19925;-63
2023/08/17 01:05:24;;;;;;;;;;;;;;;22.33;58.24;101391.19;4149009;28;20020;-63
2023/08/17 01:07:25;;;;;;;;;;;;;;;22.34;58.18;101390.19;4149531;28;19936;-62
2023/08/17 01:09:27;;;;;;;;;;;;;;;22.33;58.13;101392.97;4149747;28;20019;-62
2023/08/17 01:11:36;;;;;;;;;;;;;;;22.34;58.34;101392.03;4149391;28;20406;-63
2023/08/17 01:13:56;;;;;;;;;;;;;;;22.33;58.29;101391.19;4148819;28;19926;-63
2023/08/17 01:15:59;;;;;;;;;;;;;;;22.33;58.53;101392.97;4149610;28;19930;-63
2023/08/17 01:18:10;;;;;;;;;;;;;;;22.32;58.51;101386.78;4149530;28;19930;-63
2023/08/17 01:20:13;;;;;;;;;;;;;;;22.33;58.45;101395.66;4149024;28;19926;-63
2023/08/17 01:22:20;;;;;;;;;;;;;;;22.32;58.60;101388.59;4149490;28;20413;-63
2023/08/17 01:24:21;;;;;;;;;;;;;;;22.32;58.72;101389.47;4147396;28;19925;-63
2023/08/17 01:26:23;;;;;;;;;;;;;;;22.31;58.33;101387.75;4149473;28;20406;-63
2023/08/17 01:28:24;;;;;;;;;;;;;;;22.31;58.55;101390.44;4149356;28;20354;-62
2023/08/17 01:30:26;;;;;;;;;;;;;;;22.30;58.47;101388.72;4149392;28;19960;-63
2023/08/17 01:32:33;;;;;;;;;;;;;;;22.30;58.29;101387.88;4149326;28;19961;-63
2023/08/17 01:34:44;;;;;;;;;;;;;;;22.30;58.68;101386.03;4148141;28;19925;-62
2023/08/17 01:36:48;;;;;;;;;;;;;;;22.29;58.67;101389.69;4148377;28;19929;-62
2023/08/17 01:38:51;;;;;;;;;;;;;;;22.29;58.52;101386.16;4149377;28;20016;-62
2023/08/17 01:40:53;;;;;;;;;;;;;;;22.29;58.51;101384.31;4148627;28;20395;-63
2023/08/17 01:42:55;;;;;;;;;;;;;;;22.28;58.86;101374.56;4149229;28;19961;-63
2023/08/17 01:45:02;;;;;;;;;;;;;;;22.28;58.64;101387.13;4148396;28;19929;-63
2023/08/17 01:47:09;;;;;;;;;;;;;;;22.27;58.55;101393.44;4149101;28;19935;-63
2023/08/17 01:49:10;;;;;;;;;;;;;;;22.27;57.91;101396.13;4148654;28;19926;-63
2023/08/17 01:51:16;;;;;;;;;;;;;;;22.26;57.88;101395.28;4149122;28;19926;-63
2023/08/17 01:53:17;;;;;;;;;;;;;;;22.25;58.60;101388.22;4148865;28;19944;-63
2023/08/17 01:55:20;;;;;;;;;;;;;;;22.25;58.78;101393.56;4148244;28;19929;-63
2023/08/17 01:57:22;;;;;;;;;;;;;;;22.25;58.77;101390.00;4149028;28;19929;-63
2023/08/17 01:59:24;;;;;;;;;;;;;;;22.24;58.85;101396.38;4148949;28;20020;-63
2023/08/17 02:01:25;;;;;;;;;;;;;;;22.23;58.86;101400.84;4148946;28;19932;-63
2023/08/17 02:03:28;;;;;;;;;;;;;;;22.25;58.69;101398.94;4148614;28;19956;-63
2023/08/17 02:05:30;;;;;;;;;;;;;;;22.24;58.60;101399.88;4147078;28;19925;-63
2023/08/17 02:07:32;;;;;;;;;;;;;;;22.24;58.79;101401.72;4148632;28;19980;-63
2023/08/17 02:09:33;;;;;;;;;;;;;;;22.23;58.71;101395.50;4148927;28;19926;-62
2023/08/17 02:11:35;;;;;;;;;;;;;;;22.22;59.03;101391.09;4148620;28;19925;-63
2023/08/17 02:13:37;;;;;;;;;;;;;;;22.21;58.60;101394.75;4148082;28;20023;-63
2023/08/17 02:15:39;;;;;;;;;;;;;;;22.22;58.28;101390.25;4148423;28;19929;-63
2023/08/17 02:17:40;;;;;;;;;;;;;;;22.22;58.56;101395.63;4148266;28;19932;-64
2023/08/17 02:19:43;;;;;;;;;;;;;;;22.22;58.75;101400.97;4148765;28;19925;-62
2023/08/17 02:21:45;;;;;;;;;;;;;;;22.21;58.86;101399.25;4148610;28;19925;-63
2023/08/17 02:23:47;;;;;;;;;;;;;;;22.20;58.51;101403.78;4147916;28;19925;-63
2023/08/17 02:25:48;;;;;;;;;;;;;;;22.19;58.37;101402.06;4148549;28;19925;-63
2023/08/17 02:27:50;;;;;;;;;;;;;;;22.18;58.46;101401.19;4148523;28;20298;-62
2023/08/17 02:29:51;;;;;;;;;;;;;;;22.18;58.27;101401.19;4148635;28;19925;-62
2023/08/17 02:31:53;;;;;;;;;;;;;;;22.18;58.26;101405.72;4148049;28;19980;-63
2023/08/17 02:34:00;;;;;;;;;;;;;;;22.18;58.27;101416.44;4147737;28;19968;-63
2023/08/17 02:36:01;;;;;;;;;;;;;;;22.18;58.01;101416.44;4148133;28;20124;-63
2023/08/17 02:38:03;;;;;;;;;;;;;;;22.17;58.85;101414.72;4148290;28;19925;-63
2023/08/17 02:40:05;;;;;;;;;;;;;;;22.17;58.17;101417.38;4148284;28;19925;-63
2023/08/17 02:42:06;;;;;;;;;;;;;;;22.16;58.26;101411.19;4148232;28;19948;-62
2023/08/17 02:44:08;;;;;;;;;;;;;;;22.16;58.29;101413.00;4147586;28;20391;-62
2023/08/17 02:46:10;;;;;;;;;;;;;;;22.16;58.40;101410.31;4147944;28;19935;-62
2023/08/17 02:48:12;;;;;;;;;;;;;;;22.16;58.98;101421.03;4148456;28;19933;-62
2023/08/17 02:50:13;;;;;;;;;;;;;;;22.14;58.28;101410.44;4148381;28;19926;-61
2023/08/17 02:52:15;;;;;;;;;;;;;;;22.14;58.30;101410.44;4148191;28;19972;-62
2023/08/17 02:54:16;;;;;;;;;;;;;;;22.14;58.60;101420.28;4147401;28;20008;-62
2023/08/17 02:56:18;;;;;;;;;;;;;;;22.12;58.15;101406.16;4148008;28;19932;-63
2023/08/17 02:58:19;;;;;;;;;;;;;;;22.11;58.04;101413.31;4148234;28;20319;-63
2023/08/17 03:00:21;;;;;;;;;;;;;;;22.11;58.49;101410.66;4147893;28;19936;-63
2023/08/17 03:02:22;;;;;;;;;;;;;;;22.12;58.31;101422.25;4148258;28;19925;-63
2023/08/17 03:04:24;;;;;;;;;;;;;;;22.11;58.24;101424.03;4147499;28;19972;-62
2023/08/17 03:06:25;;;;;;;;;;;;;;;22.11;58.58;101416.00;4148104;28;19972;-62
2023/08/17 03:08:27;;;;;;;;;;;;;;;22.10;58.42;101418.81;4148108;28;19971;-62
2023/08/17 03:10:29;;;;;;;;;;;;;;;22.11;58.51;101418.69;4147894;28;20020;-62
2023/08/17 03:12:30;;;;;;;;;;;;;;;22.10;59.14;101413.44;4147708;28;19932;-62
2023/08/17 03:14:32;;;;;;;;;;;;;;;22.10;59.03;101418.81;4146851;28;20462;-63
2023/08/17 03:16:33;;;;;;;;;;;;;;;22.10;58.50;101414.31;4147908;28;19930;-63
2023/08/17 03:18:35;;;;;;;;;;;;;;;22.11;59.05;101412.47;4147856;28;19926;-63
2023/08/17 03:20:36;;;;;;;;;;;;;;;22.09;58.84;101407.25;4148211;28;19932;-63
2023/08/17 03:22:38;;;;;;;;;;;;;;;22.09;59.33;101409.06;4147992;28;19925;-62
2023/08/17 03:24:39;;;;;;;;;;;;;;;22.09;58.46;101403.69;4147208;28;19933;-62
2023/08/17 03:26:41;;;;;;;;;;;;;;;22.11;59.29;101404.44;4148043;28;19929;-61
2023/08/17 03:28:42;;;;;;;;;;;;;;;22.09;58.94;101401.88;4147741;28;19926;-62
2023/08/17 03:30:44;;;;;;;;;;;;;;;22.08;58.63;101397.50;4146441;28;19925;-62
2023/08/17 03:32:50;;;;;;;;;;;;;;;22.09;58.65;101390.31;4147919;28;20403;-63
2023/08/17 03:34:52;;;;;;;;;;;;;;;22.07;58.53;101395.78;4147175;28;19925;-63
2023/08/17 03:36:53;;;;;;;;;;;;;;;22.07;58.29;101402.97;4148066;28;20402;-62
2023/08/17 03:38:55;;;;;;;;;;;;;;;22.07;59.09;101398.47;4147629;28;19926;-63
2023/08/17 03:40:56;;;;;;;;;;;;;;;22.06;58.38;101402.09;4148001;28;19930;-62
2023/08/17 03:42:58;;;;;;;;;;;;;;;22.06;58.54;101403.94;4147834;28;19925;-63
2023/08/17 03:44:59;;;;;;;;;;;;;;;22.05;58.46;101400.38;4146687;28;20415;-62
2023/08/17 03:47:01;;;;;;;;;;;;;;;22.06;59.36;101395.91;4147687;28;19969;-63
2023/08/17 03:49:02;;;;;;;;;;;;;;;22.06;58.63;101403.94;4147593;28;19929;-62
2023/08/17 03:51:04;;;;;;;;;;;;;;;22.04;58.59;101400.50;4147760;28;19932;-62
2023/08/17 03:53:06;;;;;;;;;;;;;;;22.02;58.79;101406.00;4146268;28;19940;-62
2023/08/17 03:55:07;;;;;;;;;;;;;;;22.01;58.48;101405.13;4146865;28;19952;-62
2023/08/17 03:57:09;;;;;;;;;;;;;;;22.01;58.77;101405.13;4147806;28;19925;-61
2023/08/17 03:59:10;;;;;;;;;;;;;;;22.01;58.56;101405.13;4147332;28;20012;-62
2023/08/17 04:01:13;;;;;;;;;;;;;;;22.00;58.47;101397.19;4146517;28;19931;-62
2023/08/17 04:03:14;;;;;;;;;;;;;;;22.00;58.51;101397.19;4148511;28;20379;-63
2023/08/17 04:05:16;;;;;;;;;;;;;;;21.99;58.56;101398.16;4150121;28;20410;-63
2023/08/17 04:07:21;;;;;;;;;;;;;;;21.99;58.62;101398.16;4150632;28;19948;-63
2023/08/17 04:09:23;;;;;;;;;;;;;;;21.99;58.58;101393.69;4150573;28;19933;-63
2023/08/17 04:11:24;;;;;;;;;;;;;;;21.98;58.53;101394.63;4150496;28;19926;-63
2023/08/17 04:13:27;;;;;;;;;;;;;;;21.97;58.61;101392.94;4150276;28;20302;-63
2023/08/17 04:15:29;;;;;;;;;;;;;;;21.97;58.72;101394.72;4149838;28;19925;-62
2023/08/17 04:17:30;;;;;;;;;;;;;;;21.96;58.68;101391.22;4149274;28;20394;-62
2023/08/17 04:19:34;;;;;;;;;;;;;;;21.95;58.61;101389.50;4149741;28;21361;-62
2023/08/17 04:21:35;;;;;;;;;;;;;;;21.96;58.71;101393.88;4150414;28;19956;-62
2023/08/17 04:23:37;;;;;;;;;;;;;;;21.95;58.81;101394.00;4150491;28;20314;-62
2023/08/17 04:25:38;;;;;;;;;;;;;;;21.95;58.65;101388.66;4149757;28;19965;-62
2023/08/17 04:27:40;;;;;;;;;;;;;;;21.95;58.93;101384.13;4150159;28;20028;-63
2023/08/17 04:29:41;;;;;;;;;;;;;;;21.94;58.69;101390.47;4150453;28;20264;-62
2023/08/17 04:31:43;;;;;;;;;;;;;;;21.94;58.96;101384.25;4150420;28;19926;-61
2023/08/17 04:33:44;;;;;;;;;;;;;;;21.93;58.88;101390.56;4150261;28;19925;-61
2023/08/17 04:35:46;;;;;;;;;;;;;;;21.94;58.89;101392.28;4149671;28;20303;-62
2023/08/17 04:37:48;;;;;;;;;;;;;;;21.93;58.92;101388.75;4150359;28;20284;-62
2023/08/17 04:39:49;;;;;;;;;;;;;;;21.92;58.76;101387.06;4150243;28;19929;-63
2023/08/17 04:41:51;;;;;;;;;;;;;;;21.93;58.77;101390.56;4149794;28;19925;-62
2023/08/17 04:43:52;;;;;;;;;;;;;;;21.93;58.75;101379.88;4150102;28;19932;-63
2023/08/17 04:45:54;;;;;;;;;;;;;;;21.92;59.04;101386.19;4149283;28;19932;-63
2023/08/17 04:47:56;;;;;;;;;;;;;;;21.92;58.78;101386.19;4150200;28;19969;-62
2023/08/17 04:49:57;;;;;;;;;;;;;;;21.91;58.94;101388.03;4148955;28;19948;-63
2023/08/17 04:51:59;;;;;;;;;;;;;;;21.91;58.81;101393.38;4150073;28;19925;-62
2023/08/17 04:54:00;;;;;;;;;;;;;;;21.91;58.78;101389.81;4149728;28;19940;-62
2023/08/17 04:56:03;;;;;;;;;;;;;;;21.91;58.84;101398.72;4149002;28;20344;-63
2023/08/17 04:58:04;;;;;;;;;;;;;;;21.92;58.77;101399.56;4150141;28;19939;-63
2023/08/17 05:00:09;;;;;;;;;;;;;;;21.91;58.82;101401.41;4149919;28;19932;-62
2023/08/17 05:02:11;;;;;;;;;;;;;;;21.90;59.07;101391.66;4149784;28;19929;-62
2023/08/17 05:04:12;;;;;;;;;;;;;;;21.90;59.08;101398.84;4149265;28;19925;-63
2023/08/17 05:06:14;;;;;;;;;;;;;;;21.89;59.16;101395.31;4149432;28;19931;-62
2023/08/17 05:08:15;;;;;;;;;;;;;;;21.89;58.88;101395.31;4149687;28;19925;-62
2023/08/17 05:10:17;;;;;;;;;;;;;;;21.90;58.95;101388.16;4149664;28;19925;-63
2023/08/17 05:12:18;;;;;;;;;;;;;;;21.90;59.44;101396.19;4149026;28;19925;-63
2023/08/17 05:14:20;;;;;;;;;;;;;;;21.89;58.99;101402.50;4148381;28;20005;-63
2023/08/17 05:16:22;;;;;;;;;;;;;;;21.89;58.80;101395.31;4148970;28;20305;-63
2023/08/17 05:18:23;;;;;;;;;;;;;;;21.90;59.42;101393.50;4149696;28;19925;-62
2023/08/17 05:20:25;;;;;;;;;;;;;;;21.90;58.66;101390.81;4149575;28;19960;-62
2023/08/17 05:22:27;;;;;;;;;;;;;;;21.89;59.38;101395.31;4149602;28;19925;-62
2023/08/17 05:24:28;;;;;;;;;;;;;;;21.90;58.99;101396.19;4148780;28;19950;-62
2023/08/17 05:26:30;;;;;;;;;;;;;;;21.88;59.08;101392.75;4148970;28;19976;-63
2023/08/17 05:28:31;;;;;;;;;;;;;;;21.87;58.97;101391.88;4149450;28;19936;-63
2023/08/17 05:30:33;;;;;;;;;;;;;;;21.86;59.04;101395.53;4149485;28;19925;-63
2023/08/17 05:32:34;;;;;;;;;;;;;;;21.86;58.93;101383.00;4149541;28;19926;-62
2023/08/17 05:34:36;;;;;;;;;;;;;;;21.87;58.99;101386.50;4147381;28;20194;-63
2023/08/17 05:36:37;;;;;;;;;;;;;;;21.86;58.82;101385.66;4149324;28;19926;-63
2023/08/17 05:38:39;;;;;;;;;;;;;;;21.88;58.93;101384.72;4149008;28;19972;-63
2023/08/17 05:40:40;;;;;;;;;;;;;;;21.87;58.85;101386.50;4148988;28;19929;-63
2023/08/17 05:42:42;;;;;;;;;;;;;;;21.86;58.86;101382.16;4149250;28;19956;-63
2023/08/17 05:44:44;;;;;;;;;;;;;;;21.85;59.01;101380.44;4148462;28;20331;-63
2023/08/17 05:46:46;;;;;;;;;;;;;;;21.85;58.87;101375.94;4148895;28;19925;-62
2023/08/17 05:48:47;;;;;;;;;;;;;;;21.86;58.85;101383.00;4148853;28;19925;-63
2023/08/17 05:50:49;;;;;;;;;;;;;;;21.87;59.29;101378.47;4149074;28;19925;-62
2023/08/17 05:52:50;;;;;;;;;;;;;;;21.88;59.18;101376.69;4149046;28;19925;-63
2023/08/17 05:54:52;;;;;;;;;;;;;;;21.87;58.98;101367.78;4148000;28;20025;-63
2023/08/17 05:56:53;;;;;;;;;;;;;;;21.89;59.53;101376.56;4149042;28;19980;-63
2023/08/17 05:58:55;;;;;;;;;;;;;;;21.88;59.55;101380.19;4149005;28;19926;-62
2023/08/17 06:01:03;;;;;;;;;;;;;;;21.88;59.42;101374.00;4148803;28;19926;-62
2023/08/17 06:03:05;;;;;;;;;;;;;;;21.88;59.94;101374.00;4148719;28;19932;-62
2023/08/17 06:05:08;;;;;;;;;;;;;;;21.86;59.43;101377.63;4148082;28;19933;-63
2023/08/17 06:07:10;;;;;;;;;;;;;;;21.86;59.31;101374.13;4148796;28;19925;-62
2023/08/17 06:09:12;;;;;;;;;;;;;;;21.85;58.98;101370.56;4148624;28;19930;-63
2023/08/17 06:11:13;;;;;;;;;;;;;;;21.87;59.94;101373.13;4148830;28;19968;-62
2023/08/17 06:13:14;;;;;;;;;;;;;;;21.86;59.59;101366.09;4148625;28;19926;-62
2023/08/17 06:15:16;;;;;;;;;;;;;;;21.85;59.88;101370.56;4147922;28;19925;-63
2023/08/17 06:17:18;;;;;;;;;;;;;;;21.85;59.53;101367.88;4148431;28;19926;-62
2023/08/17 06:19:19;;;;;;;;;;;;;;;21.86;59.83;101366.09;4148630;28;20303;-63
2023/08/17 06:21:21;;;;;;;;;;;;;;;21.85;59.57;101370.56;4148731;28;20406;-63
2023/08/17 06:23:23;;;;;;;;;;;;;;;21.86;59.63;101368.75;4148288;28;19964;-63
2023/08/17 06:25:25;;;;;;;;;;;;;;;21.81;59.92;101369.09;4147888;28;19932;-63
2023/08/17 06:27:27;;;;;;;;;;;;;;;21.88;59.83;101369.50;4148380;28;19926;-63
2023/08/17 06:29:29;;;;;;;;;;;;;;;21.86;60.08;101366.94;4148608;28;19925;-63
2023/08/17 06:31:31;;;;;;;;;;;;;;;21.87;59.85;101373.13;4148540;28;19925;-63
2023/08/17 06:33:32;;;;;;;;;;;;;;;21.86;59.90;101364.25;4148206;28;20020;-63
2023/08/17 06:35:34;;;;;;;;;;;;;;;21.87;59.42;101370.44;4147791;28;19964;-63
2023/08/17 06:37:36;;;;;;;;;;;;;;;21.88;59.22;101363.28;4148013;28;19948;-62
2023/08/17 06:39:37;;;;;;;;;;;;;;;21.87;59.83;101359.75;4148546;28;19932;-62
2023/08/17 06:41:39;;;;;;;;;;;;;;;21.85;59.90;101365.22;4148391;28;20272;-63
2023/08/17 06:43:40;;;;;;;;;;;;;;;21.86;59.75;101369.59;4148279;28;20367;-63
2023/08/17 06:45:42;;;;;;;;;;;;;;;21.85;59.70;101370.56;4147524;28;19932;-63
2023/08/17 06:47:45;;;;;;;;;;;;;;;21.86;59.57;101360.72;4148409;28;19925;-63
2023/08/17 06:49:46;;;;;;;;;;;;;;;21.85;59.72;101359.84;4148316;28;19925;-63
2023/08/17 06:51:48;;;;;;;;;;;;;;;21.85;59.53;101357.19;4148245;28;20299;-62
2023/08/17 06:53:49;;;;;;;;;;;;;;;21.86;59.89;101355.38;4147775;28;20399;-63
2023/08/17 06:55:51;;;;;;;;;;;;;;;21.86;59.70;101358.91;4147379;28;20009;-63
2023/08/17 06:57:54;;;;;;;;;;;;;;;21.86;59.83;101352.69;4148230;28;19929;-63
2023/08/17 06:59:56;;;;;;;;;;;;;;;21.87;60.02;101354.38;4148146;28;19932;-63
2023/08/17 07:01:58;;;;;;;;;;;;;;;21.87;59.69;101349.03;4148177;28;19931;-63
2023/08/17 07:03:59;;;;;;;;;;;;;;;21.88;59.31;101355.25;4148057;28;20024;-62
2023/08/17 07:06:01;;;;;;;;;;;;;;;21.88;59.76;101347.22;4147624;28;20343;-63
2023/08/17 07:08:02;;;;;;;;;;;;;;;21.86;59.69;101348.19;4147794;28;19930;-63
2023/08/17 07:10:04;;;;;;;;;;;;;;;21.86;59.18;101342.81;4147943;28;20012;-63
2023/08/17 07:12:06;;;;;;;;;;;;;;;21.87;59.68;101346.34;4147833;28;19932;-63
2023/08/17 07:14:08;;;;;;;;;;;;;;;21.86;59.26;101340.16;4146664;28;19942;-63
2023/08/17 07:16:09;;;;;;;;;;;;;;;21.86;58.94;101347.34;4147595;28;20330;-62
2023/08/17 07:18:11;;;;;;;;;;;;;;;21.87;59.56;101343.66;4147872;28;19925;-63
2023/08/17 07:20:12;;;;;;;;;;;;;;;21.88;59.82;101348.06;4147840;28;19930;-63
2023/08/17 07:22:17;;;;;;;;;;;;;;;21.88;59.89;101350.75;4147670;28;19996;-61
2023/08/17 07:24:19;;;;;;;;;;;;;;;21.89;59.99;101347.09;4147921;28;19926;-62
2023/08/17 07:26:21;;;;;;;;;;;;;;;21.89;60.03;101346.25;4147259;28;20393;-62
2023/08/17 07:28:22;;;;;;;;;;;;;;;21.90;59.83;101347.97;4148036;28;20398;-62
2023/08/17 07:30:24;;;;;;;;;;;;;;;21.92;59.93;101346.00;4148115;28;19932;-61
2023/08/17 07:32:26;;;;;;;;;;;;;;;21.92;60.07;101346.88;4148005;28;19949;-61
2023/08/17 07:34:28;;;;;;;;;;;;;;;21.92;59.75;101352.25;4147628;28;19929;-63
2023/08/17 07:36:29;;;;;;;;;;;;;;;21.94;60.26;101344.94;4146851;28;19925;-63
2023/08/17 07:38:31;;;;;;;;;;;;;;;21.94;60.18;101344.94;4149103;28;19969;-63
2023/08/17 07:40:32;;;;;;;;;;;;;;;21.97;59.90;101346.53;4151082;28;19936;-62
2023/08/17 07:42:34;;;;;;;;;;;;;;;21.98;59.92;101348.25;4150923;28;19925;-65
2023/08/17 07:44:36;;;;;;;;;;;;;;;21.97;59.54;101347.41;4150928;28;20366;-65
2023/08/17 07:46:37;;;;;;;;;;;;;;;21.99;59.50;101345.47;4150537;28;20458;-65
2023/08/17 07:48:39;;;;;;;;;;;;;;;22.01;59.43;101348.03;4151070;28;19960;-62
2023/08/17 07:50:40;;;;;;;;;;;;;;;22.01;59.04;101348.03;4150652;28;20378;-62
2023/08/17 07:52:42;;;;;;;;;;;;;;;22.03;59.17;101351.44;4150929;28;19925;-65
2023/08/17 07:54:44;;;;;;;;;;;;;;;22.05;59.36;101359.38;4150405;28;20403;-65
2023/08/17 07:56:46;;;;;;;;;;;;;;;22.06;59.52;101351.22;4150630;28;20449;-62
2023/08/17 07:58:47;;;;;;;;;;;;;;;22.07;59.63;101358.28;4150952;28;19925;-64
2023/08/17 08:00:49;;;;;;;;;;;;;;;22.08;59.16;101367.16;4150841;28;19926;-65
2023/08/17 08:02:50;;;;;;;;;;;;;;;22.09;59.15;101363.50;4150776;28;19925;-62
2023/08/17 08:04:52;;;;;;;;;;;;;;;22.10;59.66;101362.53;4149814;28;19974;-63
2023/08/17 08:06:54;;;;;;;;;;;;;;;22.09;59.45;101364.38;4150489;28;19932;-63
2023/08/17 08:08:55;;;;;;;;;;;;;;;22.11;60.11;101357.06;4150735;28;19960;-62
2023/08/17 08:10:58;;;;;;;;;;;;;;;22.12;59.95;101363.31;4150730;28;19933;-62
2023/08/17 08:12:59;;;;;;;;;;;;;;;22.11;59.53;101370.47;4150401;28;19987;-63
2023/08/17 08:15:01;;;;;;;;;;;;;;;22.12;60.57;101353.44;4149886;28;19925;-63
2023/08/17 08:17:02;;;;;;;;;;;;;;;22.13;59.96;101355.13;4150398;28;20367;-63
2023/08/17 08:19:04;;;;;;;;;;;;;;;22.14;60.45;101356.84;4150113;28;20292;-63
2023/08/17 08:21:06;;;;;;;;;;;;;;;22.13;59.97;101359.66;4150580;28;19926;-63
2023/08/17 08:23:07;;;;;;;;;;;;;;;22.14;60.30;101356.84;4150274;28;19965;-63
2023/08/17 08:25:09;;;;;;;;;;;;;;;22.16;60.57;101365.66;4149763;28;19948;-63
2023/08/17 08:27:11;;;;;;;;;;;;;;;22.16;60.61;101352.25;4150324;28;19932;-63
2023/08/17 08:29:12;;;;;;;;;;;;;;;22.17;60.83;101358.44;4150111;28;20142;-62
2023/08/17 08:31:14;;;;;;;;;;;;;;;22.17;60.53;101356.59;4150299;28;19925;-63
2023/08/17 08:33:15;;;;;;;;;;;;;;;22.19;60.63;101359.19;4150034;28;19925;-63
2023/08/17 08:35:17;;;;;;;;;;;;;;;22.21;60.87;101361.75;4149048;28;19929;-63
2023/08/17 08:37:18;;;;;;;;;;;;;;;22.21;61.28;101351.88;4150144;28;19972;-63
2023/08/17 08:39:20;;;;;;;;;;;;;;;22.23;60.73;101351.78;4150107;28;19975;-62
2023/08/17 08:41:22;;;;;;;;;;;;;;;22.24;60.97;101358.84;4150133;28;19952;-63
2023/08/17 08:43:24;;;;;;;;;;;;;;;22.25;61.29;101356.06;4149975;28;19960;-62
2023/08/17 08:45:27;;;;;;;;;;;;;;;22.25;60.64;101350.69;4149516;28;19925;-64
2023/08/17 08:47:31;;;;;;;;;;;;;;;22.27;60.77;101350.56;4150139;28;20379;-62
2023/08/17 08:49:35;;;;;;;;;;;;;;;22.28;60.64;101355.81;4149547;28;19925;-63
2023/08/17 08:51:44;;;;;;;;;;;;;;;22.29;60.86;101359.34;4150143;28;20016;-63
2023/08/17 08:53:48;;;;;;;;;;;;;;;22.30;61.07;101355.72;4150035;28;19926;-65
2023/08/17 08:55:57;;;;;;;;;;;;;;;22.31;60.72;101350.22;4149181;28;19948;-63
2023/08/17 08:57:59;;;;;;;;;;;;;;;22.33;60.84;101347.44;4148700;28;19933;-63
2023/08/17 09:00:01;;;;;;;;;;;;;;;22.34;60.97;101346.47;4150116;28;19999;-63
2023/08/17 09:02:03;;;;;;;;;;;;;;;22.35;60.71;101356.22;4149797;28;19980;-63
2023/08/17 09:04:05;;;;;;;;;;;;;;;22.38;61.07;101355.13;4148485;28;19933;-63
2023/08/17 09:06:07;;;;;;;;;;;;;;;22.38;61.06;101353.31;4149286;28;20391;-63
2023/08/17 09:08:09;;;;;;;;;;;;;;;22.40;60.51;101353.22;4149915;28;19926;-62
2023/08/17 09:10:11;;;;;;;;;;;;;;;22.41;60.81;101354.94;4149780;28;19925;-63
2023/08/17 09:12:12;;;;;;;;;;;;;;;22.42;61.30;101353.94;4149487;28;19965;-63
2023/08/17 09:14:23;;;;;;;;;;;;;;;22.42;60.80;101353.94;4148504;28;19977;-63
2023/08/17 09:16:27;;;;;;;;;;;;;;;22.33;60.66;101334.03;4149007;28;19964;-63
2023/08/17 09:18:28;;;;;;;;;;;;;;;22.45;61.00;101346.53;4149324;28;20367;-66
2023/08/17 09:20:51;;;;;;;;;;;;;;;22.45;60.92;101349.19;4149693;28;20371;-63
2023/08/17 09:22:54;;;;;;;;;;;;;;;22.47;61.34;101344.59;4149561;28;19972;-63
2023/08/17 09:24:56;;;;;;;;;;;;;;;22.49;61.31;101341.78;4149593;28;19926;-63
2023/08/17 09:27:03;;;;;;;;;;;;;;;22.51;61.04;101333.66;4149036;28;20015;-64
2023/08/17 09:29:18;;;;;;;;;;;;;;;22.52;60.72;101346.91;4148571;28;19929;-63
2023/08/17 09:31:25;;;;;;;;;;;;;;;22.54;60.74;101336.06;4149460;28;20434;-64
2023/08/17 09:33:29;;;;;;;;;;;;;;;22.54;60.91;101338.75;4149088;28;19926;-63
2023/08/17 09:35:31;;;;;;;;;;;;;;;22.55;60.63;101335.09;4148778;28;19930;-64
2023/08/17 09:37:33;;;;;;;;;;;;;;;22.56;60.81;101339.50;4149323;28;19927;-62
2023/08/17 09:39:34;;;;;;;;;;;;;;;22.57;60.61;101335.84;4149473;28;20016;-63
2023/08/17 09:41:40;;;;;;;;;;;;;;;22.57;60.81;101334.00;4149491;28;19968;-63
2023/08/17 09:43:44;;;;;;;;;;;;;;;22.59;61.25;101333.88;4149125;28;20465;-63
2023/08/17 09:45:49;;;;;;;;;;;;;;;22.60;61.10;101331.09;4148752;28;19972;-63
2023/08/17 09:47:51;;;;;;;;;;;;;;;22.61;60.58;101334.63;4148811;28;19925;-63
2023/08/17 09:49:53;;;;;;;;;;;;;;;22.62;60.63;101328.31;4149098;28;19979;-62
2023/08/17 09:51:57;;;;;;;;;;;;;;;22.65;60.95;101322.72;4149180;28;19926;-64
2023/08/17 09:53:58;;;;;;;;;;;;;;;22.65;60.74;101331.59;4149289;28;20411;-64
2023/08/17 09:56:02;;;;;;;;;;;;;;;22.65;60.69;101318.19;4148292;28;19930;-63
2023/08/17 09:58:03;;;;;;;;;;;;;;;22.67;60.39;101318.06;4149020;28;19929;-63
2023/08/17 10:00:07;;;;;;;;;;;;;;;22.68;60.61;101314.41;4149105;28;19931;-64
2023/08/17 10:02:19;;;;;;;;;;;;;;;22.69;60.36;101315.28;4148040;28;19965;-64
2023/08/17 10:04:25;;;;;;;;;;;;;;;22.71;60.43;101316.88;4148997;28;19932;-64
2023/08/17 10:06:28;;;;;;;;;;;;;;;22.72;60.18;101315.03;4148322;28;19925;-63
2023/08/17 10:08:31;;;;;;;;;;;;;;;22.74;60.23;101310.41;4148968;28;20087;-63
2023/08/17 10:10:34;;;;;;;;;;;;;;;22.75;60.21;101309.44;4148830;28;20335;-63
2023/08/17 10:12:37;;;;;;;;;;;;;;;22.76;60.28;101308.44;4147325;28;19929;-62
2023/08/17 10:14:46;;;;;;;;;;;;;;;22.78;59.99;101315.44;4148434;28;19979;-64
2023/08/17 10:16:52;;;;;;;;;;;;;;;22.78;59.80;101304.69;4147563;28;19925;-63
2023/08/17 10:18:59;;;;;;;;;;;;;;;22.81;59.91;101303.59;4148814;28;19937;-63
2023/08/17 10:21:01;;;;;;;;;;;;;;;22.80;59.82;101299.22;4148540;28;19929;-63
2023/08/17 10:23:03;;;;;;;;;;;;;;;22.84;60.28;101303.34;4148679;28;19925;-63
2023/08/17 10:25:05;;;;;;;;;;;;;;;22.85;59.95;101294.34;4148632;28;20276;-63
2023/08/17 10:27:09;;;;;;;;;;;;;;;22.85;59.79;101297.00;4148052;28;19925;-63